createdAt,value
2023-05-19T00:01:07.610Z,37.6
2023-05-19T00:02:01.218Z,37.6
2023-05-19T00:03:14.115Z,37.6
2023-05-19T00:04:17.714Z,37.6
2023-05-19T00:05:30.371Z,37.6
2023-05-19T00:06:43.664Z,37.6
2023-05-19T00:07:46.306Z,37.6
2023-05-19T00:08:59.669Z,37.7
2023-05-19T00:10:12.235Z,37.7
2023-05-19T00:11:25.687Z,37.7
2023-05-19T00:12:28.314Z,37.7
2023-05-19T00:13:41.696Z,37.7
2023-05-19T00:14:54.236Z,37.7
2023-05-19T00:16:17.239Z,37.7
2023-05-19T00:17:10.041Z,37.8
2023-05-19T00:18:23.200Z,37.8
2023-05-19T00:19:25.866Z,37.9
2023-05-19T00:20:39.192Z,37.8
2023-05-19T00:22:11.414Z,37.8
2023-05-19T00:23:05.158Z,37.8
2023-05-19T00:24:07.851Z,37.9
2023-05-19T00:25:21.221Z,37.8
2023-05-19T00:26:33.877Z,37.9
2023-05-19T00:27:37.166Z,37.8
2023-05-19T00:28:49.714Z,37.9
2023-05-19T00:30:03.171Z,37.9
2023-05-19T00:31:05.592Z,37.8
2023-05-19T00:32:19.185Z,37.9
2023-05-19T00:33:31.742Z,37.9
2023-05-19T00:34:45.151Z,37.9
2023-05-19T00:35:47.897Z,37.9
2023-05-19T00:37:01.163Z,38.0
2023-05-19T00:38:13.732Z,38.0
2023-05-19T00:39:17.709Z,38.0
2023-05-19T00:40:30.438Z,38.0
2023-05-19T00:41:44.214Z,38.1
2023-05-19T00:42:46.937Z,38.1
2023-05-19T00:44:00.202Z,38.1
2023-05-19T00:45:12.853Z,38.0
2023-05-19T00:46:26.213Z,38.1
2023-05-19T00:47:29.036Z,38.1
2023-05-19T00:48:42.698Z,38.2
2023-05-19T00:49:55.281Z,38.1
2023-05-19T00:50:58.721Z,38.2
2023-05-19T00:52:11.381Z,38.2
2023-05-19T00:53:24.720Z,38.2
2023-05-19T00:54:27.373Z,38.2
2023-05-19T00:55:40.726Z,38.2
2023-05-19T00:56:53.286Z,38.2
2023-05-19T00:58:06.215Z,38.2
2023-05-19T00:59:08.710Z,38.2
2023-05-19T01:00:21.688Z,38.3
2023-05-19T01:01:34.356Z,38.3
2023-05-19T01:02:38.251Z,38.3
2023-05-19T01:03:51.071Z,38.3
2023-05-19T01:05:04.674Z,38.3
2023-05-19T01:06:07.461Z,38.3
2023-05-19T01:07:21.234Z,38.3
2023-05-19T01:08:33.838Z,38.3
2023-05-19T01:09:47.212Z,38.4
2023-05-19T01:10:50.849Z,38.4
2023-05-19T01:12:04.188Z,38.4
2023-05-19T01:13:16.751Z,38.4
2023-05-19T01:14:20.198Z,38.4
2023-05-19T01:15:52.365Z,38.4
2023-05-19T01:16:45.730Z,38.4
2023-05-19T01:17:48.428Z,38.4
2023-05-19T01:19:21.775Z,38.4
2023-05-19T01:20:14.539Z,38.5
2023-05-19T01:21:28.189Z,38.5
2023-05-19T01:22:30.842Z,38.4
2023-05-19T01:23:44.233Z,38.4
2023-05-19T01:24:56.829Z,38.4
2023-05-19T01:26:00.223Z,38.4
2023-05-19T01:27:12.818Z,38.4
2023-05-19T01:28:26.182Z,38.4
2023-05-19T01:29:38.745Z,38.4
2023-05-19T01:30:42.188Z,38.5
2023-05-19T01:31:54.783Z,38.4
2023-05-19T01:33:08.300Z,38.5
2023-05-19T01:34:11.053Z,38.5
2023-05-19T01:35:24.215Z,38.6
2023-05-19T01:36:36.783Z,38.5
2023-05-19T01:37:50.190Z,38.6
2023-05-19T01:38:52.845Z,38.6
2023-05-19T01:40:06.237Z,38.6
2023-05-19T01:41:18.820Z,38.6
2023-05-19T01:42:22.202Z,38.6
2023-05-19T01:43:34.778Z,38.7
2023-05-19T01:44:48.195Z,38.7
2023-05-19T01:45:50.883Z,38.7
2023-05-19T01:47:04.206Z,38.7
2023-05-19T01:48:36.547Z,38.7
2023-05-19T01:49:30.234Z,38.8
2023-05-19T01:50:33.034Z,38.7
2023-05-19T01:51:46.741Z,38.7
2023-05-19T01:52:59.319Z,38.7
2023-05-19T01:54:02.720Z,38.7
2023-05-19T01:55:15.298Z,38.7
2023-05-19T01:56:28.713Z,38.8
2023-05-19T01:57:32.347Z,38.8
2023-05-19T01:58:45.707Z,38.8
2023-05-19T01:59:58.289Z,38.8
2023-05-19T02:01:11.738Z,38.8
2023-05-19T02:02:14.499Z,38.8
2023-05-19T02:03:27.715Z,38.8
2023-05-19T02:04:40.568Z,38.8
2023-05-19T02:05:44.218Z,38.8
2023-05-19T02:06:57.039Z,38.8
2023-05-19T02:08:10.233Z,38.9
2023-05-19T02:09:12.876Z,38.9
2023-05-19T02:10:26.244Z,38.9
2023-05-19T02:11:38.839Z,39.0
2023-05-19T02:12:52.226Z,38.9
2023-05-19T02:13:54.864Z,38.9
2023-05-19T02:15:08.274Z,38.9
2023-05-19T02:16:21.108Z,38.9
2023-05-19T02:17:24.767Z,39.0
2023-05-19T02:18:37.487Z,39.0
2023-05-19T02:19:51.244Z,39.0
2023-05-19T02:20:53.942Z,39.0
2023-05-19T02:22:07.349Z,39.0
2023-05-19T02:23:20.052Z,39.0
2023-05-19T02:24:23.744Z,39.0
2023-05-19T02:25:36.343Z,39.0
2023-05-19T02:26:49.747Z,39.1
2023-05-19T02:28:02.349Z,39.1
2023-05-19T02:29:05.698Z,39.1
2023-05-19T02:30:18.361Z,39.1
2023-05-19T02:31:31.725Z,39.1
2023-05-19T02:32:34.547Z,39.1
2023-05-19T02:33:48.222Z,39.1
2023-05-19T02:35:00.834Z,39.1
2023-05-19T02:36:14.192Z,39.2
2023-05-19T02:37:16.870Z,39.2
2023-05-19T02:38:30.216Z,39.1
2023-05-19T02:39:42.809Z,39.1
2023-05-19T02:40:46.244Z,39.2
2023-05-19T02:41:58.842Z,39.2
2023-05-19T02:43:12.245Z,39.2
2023-05-19T02:44:14.917Z,39.2
2023-05-19T02:45:28.234Z,39.2
2023-05-19T02:46:41.100Z,39.2
2023-05-19T02:47:54.760Z,39.2
2023-05-19T02:48:57.548Z,39.2
2023-05-19T02:50:11.242Z,39.2
2023-05-19T02:51:23.854Z,39.2
2023-05-19T02:52:27.250Z,39.3
2023-05-19T02:53:39.847Z,39.3
2023-05-19T02:54:53.244Z,39.3
2023-05-19T02:55:55.931Z,39.3
2023-05-19T02:57:09.230Z,39.3
2023-05-19T02:58:21.834Z,39.3
2023-05-19T02:59:35.261Z,39.3
2023-05-19T03:00:37.966Z,39.3
2023-05-19T03:01:51.262Z,39.3
2023-05-19T03:03:04.091Z,39.3
2023-05-19T03:04:07.781Z,39.4
2023-05-19T03:05:20.464Z,39.3
2023-05-19T03:06:33.747Z,39.4
2023-05-19T03:07:36.420Z,39.4
2023-05-19T03:08:49.727Z,39.4
2023-05-19T03:10:02.319Z,39.4
2023-05-19T03:11:15.753Z,39.4
2023-05-19T03:12:18.403Z,39.4
2023-05-19T03:13:31.760Z,39.5
2023-05-19T03:14:44.368Z,39.4
2023-05-19T03:15:47.742Z,39.5
2023-05-19T03:17:00.381Z,39.5
2023-05-19T03:18:13.806Z,39.5
2023-05-19T03:19:16.608Z,39.5
2023-05-19T03:20:30.403Z,39.5
2023-05-19T03:21:43.206Z,39.5
2023-05-19T03:22:56.765Z,39.5
2023-05-19T03:23:59.451Z,39.5
2023-05-19T03:25:12.746Z,39.5
2023-05-19T03:26:25.367Z,39.6
2023-05-19T03:27:28.717Z,39.5
2023-05-19T03:28:41.312Z,39.5
2023-05-19T03:29:54.796Z,39.6
2023-05-19T03:30:57.437Z,39.6
2023-05-19T03:32:10.809Z,39.6
2023-05-19T03:33:23.697Z,39.6
2023-05-19T03:34:37.222Z,39.6
2023-05-19T03:35:39.987Z,39.6
2023-05-19T03:36:53.260Z,39.6
2023-05-19T03:38:05.780Z,39.6
2023-05-19T03:39:09.230Z,39.7
2023-05-19T03:40:21.777Z,39.6
2023-05-19T03:41:35.233Z,39.7
2023-05-19T03:42:47.824Z,39.6
2023-05-19T03:43:51.229Z,39.7
2023-05-19T03:45:03.823Z,39.7
2023-05-19T03:46:17.303Z,39.7
2023-05-19T03:47:20.092Z,39.7
2023-05-19T03:48:33.247Z,39.7
2023-05-19T03:49:45.868Z,39.7
2023-05-19T03:50:59.342Z,39.7
2023-05-19T03:52:02.014Z,39.7
2023-05-19T03:53:15.233Z,39.8
2023-05-19T03:54:27.846Z,39.7
2023-05-19T03:55:32.273Z,39.7
2023-05-19T03:56:44.948Z,39.8
2023-05-19T03:57:58.773Z,39.8
2023-05-19T03:59:01.471Z,39.7
2023-05-19T04:00:24.770Z,39.8
2023-05-19T04:01:27.665Z,39.8
2023-05-19T04:02:31.379Z,39.8
2023-05-19T04:03:44.209Z,39.8
2023-05-19T04:04:57.928Z,39.8
2023-05-19T04:06:00.702Z,39.8
2023-05-19T04:07:14.269Z,39.8
2023-05-19T04:08:26.917Z,39.8
2023-05-19T04:09:40.235Z,39.8
2023-05-19T04:10:42.909Z,39.9
2023-05-19T04:11:56.284Z,39.8
2023-05-19T04:13:08.920Z,39.9
2023-05-19T04:14:12.271Z,39.8
2023-05-19T04:15:24.893Z,39.9
2023-05-19T04:16:38.268Z,39.9
2023-05-19T04:17:41.000Z,39.9
2023-05-19T04:18:54.341Z,39.9
2023-05-19T04:20:07.082Z,40.0
2023-05-19T04:21:20.757Z,39.9
2023-05-19T04:22:23.424Z,39.9
2023-05-19T04:23:36.731Z,39.9
2023-05-19T04:24:49.349Z,39.9
2023-05-19T04:25:52.747Z,39.9
2023-05-19T04:27:05.354Z,40.0
2023-05-19T04:28:18.770Z,40.0
2023-05-19T04:29:21.442Z,40.0
2023-05-19T04:30:34.940Z,39.9
2023-05-19T04:31:47.664Z,40.0
2023-05-19T04:33:01.329Z,40.0
2023-05-19T04:34:04.093Z,40.0
2023-05-19T04:35:17.230Z,40.0
2023-05-19T04:36:29.847Z,40.0
2023-05-19T04:37:33.273Z,40.0
2023-05-19T04:38:45.884Z,40.0
2023-05-19T04:39:59.252Z,40.0
2023-05-19T04:41:11.874Z,40.0
2023-05-19T04:42:15.242Z,40.0
2023-05-19T04:43:27.849Z,40.0
2023-05-19T04:44:41.281Z,40.0
2023-05-19T04:45:44.033Z,40.0
2023-05-19T04:46:57.274Z,40.0
2023-05-19T04:48:09.941Z,40.1
2023-05-19T04:49:13.270Z,40.0
2023-05-19T04:50:25.872Z,40.1
2023-05-19T04:51:39.271Z,40.1
2023-05-19T04:52:51.876Z,40.0
2023-05-19T04:54:05.306Z,40.1
2023-05-19T04:55:08.054Z,40.0
2023-05-19T04:56:21.243Z,40.1
2023-05-19T04:57:23.888Z,40.1
2023-05-19T04:58:37.748Z,40.1
2023-05-19T04:59:50.939Z,40.1
2023-05-19T05:00:54.282Z,40.0
2023-05-19T05:02:07.017Z,40.1
2023-05-19T05:03:20.878Z,40.1
2023-05-19T05:04:23.624Z,40.0
2023-05-19T05:05:37.256Z,40.1
2023-05-19T05:06:49.882Z,40.1
2023-05-19T05:08:03.264Z,40.1
2023-05-19T05:09:05.937Z,40.1
2023-05-19T05:10:19.256Z,40.1
2023-05-19T05:11:31.979Z,40.1
2023-05-19T05:12:35.262Z,40.2
2023-05-19T05:13:47.863Z,40.1
2023-05-19T05:15:01.801Z,40.1
2023-05-19T05:16:05.018Z,40.1
2023-05-19T05:17:18.270Z,40.2
2023-05-19T05:18:30.851Z,40.2
2023-05-19T05:19:44.366Z,40.2
2023-05-19T05:20:47.033Z,40.3
2023-05-19T05:22:00.247Z,40.2
2023-05-19T05:23:12.766Z,40.2
2023-05-19T05:24:16.269Z,40.0
2023-05-19T05:25:28.724Z,39.9
2023-05-19T05:26:42.278Z,39.7
2023-05-19T05:27:54.723Z,39.6
2023-05-19T05:28:58.249Z,39.4
2023-05-19T05:30:10.651Z,39.0
2023-05-19T05:31:24.279Z,38.5
2023-05-19T05:32:26.837Z,37.7
2023-05-19T05:33:40.280Z,37.0
2023-05-19T05:34:52.790Z,36.4
2023-05-19T05:36:05.752Z,35.8
2023-05-19T05:37:08.343Z,35.2
2023-05-19T05:38:21.765Z,34.6
2023-05-19T05:39:34.132Z,34.4
2023-05-19T05:40:37.273Z,34.0
2023-05-19T05:41:49.609Z,33.6
2023-05-19T05:43:02.746Z,33.3
2023-05-19T05:44:05.231Z,33.1
2023-05-19T05:45:18.233Z,32.9
2023-05-19T05:46:30.624Z,32.7
2023-05-19T05:47:43.796Z,32.5
2023-05-19T05:48:46.225Z,32.4
2023-05-19T05:49:59.794Z,32.3
2023-05-19T05:51:12.138Z,32.1
2023-05-19T05:52:25.257Z,32.0
2023-05-19T05:53:27.698Z,32.0
2023-05-19T05:54:40.780Z,32.1
2023-05-19T05:55:53.129Z,32.2
2023-05-19T05:56:56.257Z,32.1
2023-05-19T05:58:08.610Z,32.1
2023-05-19T05:59:21.801Z,32.2
2023-05-19T06:00:34.378Z,32.1
2023-05-19T06:01:41.179Z,32.1
2023-05-19T06:02:53.601Z,32.1
2023-05-19T06:03:56.757Z,32.0
2023-05-19T06:05:09.095Z,32.3
2023-05-19T06:06:22.298Z,32.3
2023-05-19T06:07:26.280Z,32.2
2023-05-19T06:08:39.377Z,32.3
2023-05-19T06:09:51.672Z,32.3
2023-05-19T06:10:54.847Z,32.2
2023-05-19T06:12:07.202Z,32.1
2023-05-19T06:13:20.268Z,32.1
2023-05-19T06:14:32.612Z,32.1
2023-05-19T06:15:35.833Z,32.1
2023-05-19T06:16:48.205Z,32.0
2023-05-19T06:18:01.863Z,32.1
2023-05-19T06:19:06.360Z,32.1
2023-05-19T06:20:19.801Z,32.0
2023-05-19T06:21:32.036Z,32.0
2023-05-19T06:22:35.284Z,32.1
2023-05-19T06:23:47.627Z,32.1
2023-05-19T06:25:00.888Z,32.1
2023-05-19T06:26:13.210Z,32.0
2023-05-19T06:27:16.357Z,32.0
2023-05-19T06:28:28.753Z,32.0
2023-05-19T06:29:42.099Z,32.1
2023-05-19T06:30:44.476Z,32.0
2023-05-19T06:31:57.824Z,32.1
2023-05-19T06:33:10.156Z,32.0
2023-05-19T06:34:23.299Z,32.0
2023-05-19T06:35:25.648Z,32.0
2023-05-19T06:36:38.843Z,32.0
2023-05-19T06:37:51.171Z,32.0
2023-05-19T06:38:54.270Z,32.0
2023-05-19T06:40:06.618Z,32.1
2023-05-19T06:41:19.777Z,32.1
2023-05-19T06:42:22.245Z,32.1
2023-05-19T06:43:35.312Z,32.1
2023-05-19T06:44:47.601Z,32.1
2023-05-19T06:46:00.813Z,32.1
2023-05-19T06:47:03.340Z,32.2
2023-05-19T06:48:16.549Z,32.2
2023-05-19T06:49:30.420Z,32.1
2023-05-19T06:50:33.976Z,32.2
2023-05-19T06:51:46.479Z,32.2
2023-05-19T06:52:59.841Z,32.2
2023-05-19T06:54:02.520Z,32.2
2023-05-19T06:55:15.814Z,32.2
2023-05-19T06:56:28.100Z,32.2
2023-05-19T06:57:41.348Z,32.2
2023-05-19T06:58:43.897Z,32.2
2023-05-19T06:59:56.813Z,32.2
2023-05-19T07:01:09.105Z,32.2
2023-05-19T07:02:12.345Z,32.2
2023-05-19T07:03:24.836Z,32.3
2023-05-19T07:04:38.274Z,32.3
2023-05-19T07:05:40.698Z,32.3
2023-05-19T07:06:53.803Z,32.3
2023-05-19T07:08:06.004Z,32.3
2023-05-19T07:09:19.336Z,32.3
2023-05-19T07:10:22.419Z,32.3
2023-05-19T07:11:35.795Z,32.3
2023-05-19T07:12:48.308Z,32.3
2023-05-19T07:13:51.803Z,32.3
2023-05-19T07:15:04.334Z,32.3
2023-05-19T07:16:17.861Z,32.3
2023-05-19T07:17:20.584Z,32.3
2023-05-19T07:18:33.821Z,32.3
2023-05-19T07:19:46.105Z,32.4
2023-05-19T07:20:59.285Z,32.3
2023-05-19T07:22:01.686Z,32.3
2023-05-19T07:23:17.137Z,32.4
2023-05-19T07:24:19.938Z,32.3
2023-05-19T07:25:32.811Z,32.3
2023-05-19T07:26:45.089Z,32.4
2023-05-19T07:27:58.328Z,32.4
2023-05-19T07:29:00.736Z,32.4
2023-05-19T07:30:13.842Z,32.4
2023-05-19T07:31:26.178Z,32.4
2023-05-19T07:32:29.320Z,32.4
2023-05-19T07:33:41.680Z,32.4
2023-05-19T07:35:04.332Z,32.4
2023-05-19T07:36:06.658Z,32.4
2023-05-19T07:37:09.840Z,32.4
2023-05-19T07:38:22.046Z,32.4
2023-05-19T07:39:35.314Z,32.4
2023-05-19T07:40:37.707Z,32.4
2023-05-19T07:41:50.795Z,32.4
2023-05-19T07:43:02.984Z,32.4
2023-05-19T07:44:15.811Z,32.4
2023-05-19T07:45:18.216Z,32.4
2023-05-19T07:46:31.517Z,32.4
2023-05-19T07:47:44.406Z,32.4
2023-05-19T07:48:47.825Z,32.4
2023-05-19T07:50:00.198Z,32.4
2023-05-19T07:51:13.314Z,32.4
2023-05-19T07:52:25.583Z,32.4
2023-05-19T07:53:28.810Z,32.5
2023-05-19T07:54:41.072Z,32.5
2023-05-19T07:55:55.467Z,32.4
2023-05-19T07:56:58.903Z,32.4
2023-05-19T07:58:11.826Z,32.4
2023-05-19T07:59:24.096Z,32.4
2023-05-19T08:00:27.317Z,32.5
2023-05-19T08:01:39.549Z,32.4
2023-05-19T08:02:53.071Z,32.4
2023-05-19T08:03:59.904Z,32.4
2023-05-19T08:05:13.338Z,32.4
2023-05-19T08:06:15.726Z,32.4
2023-05-19T08:07:28.891Z,32.4
2023-05-19T08:08:41.162Z,32.3
2023-05-19T08:09:54.335Z,32.4
2023-05-19T08:10:56.648Z,32.4
2023-05-19T08:12:09.807Z,32.4
2023-05-19T08:13:22.095Z,32.4
2023-05-19T08:14:25.350Z,32.4
2023-05-19T08:15:37.611Z,32.4
2023-05-19T08:17:01.260Z,32.4
2023-05-19T08:18:03.582Z,32.4
2023-05-19T08:19:06.866Z,32.4
2023-05-19T08:20:19.267Z,32.4
2023-05-19T08:21:32.329Z,32.3
2023-05-19T08:22:34.675Z,32.4
2023-05-19T08:23:49.373Z,32.3
2023-05-19T08:25:01.697Z,32.4
2023-05-19T08:26:06.384Z,32.4
2023-05-19T08:27:18.582Z,32.4
2023-05-19T08:28:32.141Z,32.3
2023-05-19T08:29:34.565Z,32.3
2023-05-19T08:30:47.832Z,32.4
2023-05-19T08:32:19.805Z,32.3
2023-05-19T08:33:13.456Z,32.3
2023-05-19T08:34:15.924Z,32.3
2023-05-19T08:35:28.821Z,32.3
2023-05-19T08:36:41.062Z,32.3
2023-05-19T08:37:44.332Z,32.3
2023-05-19T08:38:56.556Z,32.3
2023-05-19T08:40:09.857Z,32.3
2023-05-19T08:41:21.785Z,32.3
2023-05-19T08:42:24.836Z,32.3
2023-05-19T08:43:37.316Z,32.3
2023-05-19T08:44:50.442Z,32.3
2023-05-19T08:45:52.963Z,32.3
2023-05-19T08:47:05.851Z,32.3
2023-05-19T08:48:18.200Z,32.2
2023-05-19T08:49:31.324Z,32.2
2023-05-19T08:50:33.941Z,32.2
2023-05-19T08:51:47.328Z,32.2
2023-05-19T08:52:59.693Z,32.3
2023-05-19T08:54:04.337Z,32.3
2023-05-19T08:55:16.623Z,32.2
2023-05-19T08:56:29.862Z,32.2
2023-05-19T08:57:32.190Z,32.2
2023-05-19T08:58:45.320Z,32.2
2023-05-19T08:59:57.552Z,32.3
2023-05-19T09:01:00.873Z,32.2
2023-05-19T09:02:13.081Z,32.2
2023-05-19T09:03:25.904Z,32.3
2023-05-19T09:04:38.328Z,32.3
2023-05-19T09:05:41.423Z,32.2
2023-05-19T09:06:54.382Z,32.2
2023-05-19T09:08:07.336Z,32.2
2023-05-19T09:09:09.702Z,32.2
2023-05-19T09:10:22.861Z,32.3
2023-05-19T09:11:35.090Z,32.2
2023-05-19T09:12:48.388Z,32.2
2023-05-19T09:13:50.824Z,32.2
2023-05-19T09:15:03.855Z,32.2
2023-05-19T09:16:16.113Z,32.3
2023-05-19T09:17:19.342Z,32.3
2023-05-19T09:18:31.535Z,32.3
2023-05-19T09:19:44.330Z,32.3
2023-05-19T09:20:56.557Z,32.2
2023-05-19T09:21:59.832Z,32.3
2023-05-19T09:23:12.049Z,32.3
2023-05-19T09:24:24.848Z,32.3
2023-05-19T09:25:27.218Z,32.3
2023-05-19T09:26:40.456Z,32.3
2023-05-19T09:27:52.807Z,32.2
2023-05-19T09:29:05.816Z,32.3
2023-05-19T09:30:08.188Z,32.2
2023-05-19T09:31:21.366Z,32.2
2023-05-19T09:32:33.681Z,32.2
2023-05-19T09:33:36.877Z,32.2
2023-05-19T09:34:49.009Z,32.3
2023-05-19T09:36:01.857Z,32.2
2023-05-19T09:37:14.113Z,32.1
2023-05-19T09:38:17.376Z,32.2
2023-05-19T09:39:29.652Z,32.2
2023-05-19T09:40:42.850Z,32.2
2023-05-19T09:41:45.170Z,32.2
2023-05-19T09:42:58.368Z,32.2
2023-05-19T09:44:10.588Z,32.3
2023-05-19T09:45:23.361Z,32.2
2023-05-19T09:46:25.689Z,32.3
2023-05-19T09:47:38.932Z,32.2
2023-05-19T09:48:51.215Z,32.3
2023-05-19T09:50:04.326Z,32.2
2023-05-19T09:51:06.623Z,32.2
2023-05-19T09:52:19.873Z,32.2
2023-05-19T09:53:32.066Z,32.2
2023-05-19T09:54:35.387Z,32.2
2023-05-19T09:55:47.808Z,32.2
2023-05-19T09:57:00.852Z,32.2
2023-05-19T09:58:03.121Z,32.2
2023-05-19T09:59:15.845Z,32.1
2023-05-19T10:00:28.037Z,32.1
2023-05-19T10:01:40.854Z,32.2
2023-05-19T10:02:53.141Z,32.2
2023-05-19T10:05:23.492Z,32.1
2023-05-19T10:06:16.097Z,32.1
2023-05-19T10:07:28.899Z,32.1
2023-05-19T10:08:41.005Z,32.1
2023-05-19T10:09:43.900Z,32.1
2023-05-19T10:10:56.111Z,32.1
2023-05-19T10:12:08.895Z,32.1
2023-05-19T10:13:11.203Z,32.1
2023-05-19T10:14:24.383Z,32.1
2023-05-19T10:15:46.678Z,32.0
2023-05-19T10:16:50.402Z,32.1
2023-05-19T10:17:52.799Z,32.1
2023-05-19T10:19:05.925Z,32.0
2023-05-19T10:20:18.183Z,32.1
2023-05-19T10:21:21.399Z,32.0
2023-05-19T10:22:33.610Z,32.0
2023-05-19T10:23:46.384Z,32.0
2023-05-19T10:24:58.685Z,32.0
2023-05-19T10:26:01.870Z,32.0
2023-05-19T10:27:14.072Z,32.1
2023-05-19T10:28:26.892Z,32.1
2023-05-19T10:29:29.205Z,32.0
2023-05-19T10:30:42.399Z,32.1
2023-05-19T10:31:54.609Z,31.9
2023-05-19T10:33:07.949Z,31.9
2023-05-19T10:34:10.320Z,32.0
2023-05-19T10:35:23.397Z,32.0
2023-05-19T10:36:35.593Z,31.9
2023-05-19T10:37:38.923Z,31.9
2023-05-19T10:38:51.026Z,31.9
2023-05-19T10:40:03.909Z,32.0
2023-05-19T10:41:16.093Z,31.9
2023-05-19T10:42:19.385Z,31.9
2023-05-19T10:43:31.562Z,31.9
2023-05-19T10:44:44.399Z,31.9
2023-05-19T10:45:46.650Z,31.8
2023-05-19T10:46:59.431Z,31.9
2023-05-19T10:48:11.796Z,31.9
2023-05-19T10:49:24.916Z,31.9
2023-05-19T10:50:27.667Z,31.8
2023-05-19T10:51:40.693Z,31.9
2023-05-19T10:52:52.780Z,31.9
2023-05-19T10:53:55.933Z,31.8
2023-05-19T10:55:08.128Z,31.9
2023-05-19T10:56:20.929Z,31.9
2023-05-19T10:57:33.119Z,31.8
2023-05-19T10:58:36.430Z,31.9
2023-05-19T10:59:48.762Z,31.8
2023-05-19T11:01:01.970Z,31.8
2023-05-19T11:02:05.605Z,31.8
2023-05-19T11:03:18.440Z,31.7
2023-05-19T11:04:30.716Z,31.8
2023-05-19T11:05:34.065Z,31.8
2023-05-19T11:06:46.384Z,31.7
2023-05-19T11:07:59.408Z,31.8
2023-05-19T11:09:11.532Z,31.7
2023-05-19T11:10:14.452Z,31.8
2023-05-19T11:11:26.822Z,31.8
2023-05-19T11:12:39.924Z,31.7
2023-05-19T11:13:42.235Z,31.7
2023-05-19T11:14:55.541Z,31.8
2023-05-19T11:16:07.975Z,31.7
2023-05-19T11:17:20.904Z,31.7
2023-05-19T11:18:23.215Z,31.7
2023-05-19T11:19:36.423Z,31.7
2023-05-19T11:20:48.605Z,31.7
2023-05-19T11:21:51.905Z,31.6
2023-05-19T11:23:04.039Z,31.7
2023-05-19T11:24:16.905Z,31.6
2023-05-19T11:25:28.970Z,31.7
2023-05-19T11:26:31.903Z,31.7
2023-05-19T11:27:43.973Z,31.7
2023-05-19T11:28:56.888Z,31.6
2023-05-19T11:29:59.312Z,31.6
2023-05-19T11:31:12.431Z,31.6
2023-05-19T11:32:24.626Z,31.6
2023-05-19T11:33:37.426Z,31.6
2023-05-19T11:34:39.646Z,31.6
2023-05-19T11:35:52.460Z,31.6
2023-05-19T11:37:04.684Z,31.6
2023-05-19T11:38:17.434Z,31.7
2023-05-19T11:39:19.661Z,31.6
2023-05-19T11:40:32.938Z,31.6
2023-05-19T11:41:45.174Z,31.6
2023-05-19T11:42:48.448Z,31.6
2023-05-19T11:44:00.623Z,31.6
2023-05-19T11:45:13.408Z,31.6
2023-05-19T11:46:15.735Z,31.6
2023-05-19T11:47:28.962Z,31.6
2023-05-19T11:48:41.514Z,31.6
2023-05-19T11:49:54.448Z,31.6
2023-05-19T11:50:56.940Z,31.6
2023-05-19T11:52:09.950Z,31.7
2023-05-19T11:53:22.110Z,31.6
2023-05-19T11:54:24.909Z,31.5
2023-05-19T11:55:37.063Z,31.5
2023-05-19T11:56:49.920Z,31.5
2023-05-19T11:58:04.436Z,31.6
2023-05-19T11:59:08.415Z,31.4
2023-05-19T12:00:20.666Z,31.6
2023-05-19T12:01:23.941Z,31.5
2023-05-19T12:02:36.136Z,31.5
2023-05-19T12:03:49.262Z,31.6
2023-05-19T12:04:51.945Z,31.5
2023-05-19T12:06:05.470Z,31.5
2023-05-19T12:07:17.650Z,31.6
2023-05-19T12:08:30.417Z,31.5
2023-05-19T12:09:32.688Z,31.5
2023-05-19T12:10:45.462Z,31.6
2023-05-19T12:11:57.621Z,31.6
2023-05-19T12:13:00.429Z,31.5
2023-05-19T12:14:12.524Z,31.5
2023-05-19T12:15:25.429Z,31.5
2023-05-19T12:16:37.604Z,31.5
2023-05-19T12:17:40.934Z,31.5
2023-05-19T12:18:53.101Z,31.5
2023-05-19T12:20:05.930Z,31.5
2023-05-19T12:21:17.862Z,31.5
2023-05-19T12:22:20.925Z,31.4
2023-05-19T12:23:33.048Z,31.4
2023-05-19T12:24:45.917Z,31.5
2023-05-19T12:25:48.361Z,31.5
2023-05-19T12:27:01.420Z,31.4
2023-05-19T12:28:13.695Z,31.5
2023-05-19T12:29:26.428Z,31.4
2023-05-19T12:30:28.643Z,31.5
2023-05-19T12:31:41.462Z,31.4
2023-05-19T12:32:53.658Z,31.4
2023-05-19T12:33:56.969Z,31.5
2023-05-19T12:35:09.218Z,31.5
2023-05-19T12:36:21.938Z,31.5
2023-05-19T12:37:34.071Z,31.5
2023-05-19T12:38:36.959Z,31.5
2023-05-19T12:39:49.090Z,31.5
2023-05-19T12:41:01.948Z,31.5
2023-05-19T12:42:14.073Z,31.4
2023-05-19T12:43:26.475Z,31.4
2023-05-19T12:44:28.737Z,31.4
2023-05-19T12:45:42.002Z,31.4
2023-05-19T12:46:44.297Z,31.4
2023-05-19T12:47:57.505Z,31.4
2023-05-19T12:49:09.641Z,31.4
2023-05-19T12:50:22.534Z,31.4
2023-05-19T12:51:24.896Z,31.4
2023-05-19T12:52:38.226Z,31.3
2023-05-19T12:53:50.378Z,31.3
2023-05-19T12:54:53.510Z,31.4
2023-05-19T12:56:05.761Z,31.3
2023-05-19T12:57:18.954Z,31.4
2023-05-19T12:58:22.120Z,31.3
2023-05-19T12:59:38.719Z,31.3
2023-05-19T13:00:41.346Z,31.3
2023-05-19T13:01:54.479Z,31.3
2023-05-19T13:03:06.772Z,31.3
2023-05-19T13:04:19.961Z,31.3
2023-05-19T13:05:22.266Z,31.3
2023-05-19T13:06:34.935Z,31.3
2023-05-19T13:07:47.042Z,31.4
2023-05-19T13:08:59.966Z,31.3
2023-05-19T13:10:02.378Z,31.3
2023-05-19T13:11:15.442Z,31.3
2023-05-19T13:12:27.592Z,31.3
2023-05-19T13:13:30.527Z,31.3
2023-05-19T13:14:42.750Z,31.3
2023-05-19T13:15:55.451Z,31.4
2023-05-19T13:17:07.526Z,31.3
2023-05-19T13:18:10.506Z,31.3
2023-05-19T13:19:26.064Z,31.3
2023-05-19T13:20:29.444Z,31.4
2023-05-19T13:21:41.570Z,31.4
2023-05-19T13:22:54.442Z,31.3
2023-05-19T13:24:06.571Z,31.3
2023-05-19T13:25:09.466Z,31.3
2023-05-19T13:26:21.564Z,31.3
2023-05-19T13:27:34.455Z,31.3
2023-05-19T13:28:46.498Z,31.3
2023-05-19T13:29:49.474Z,31.4
2023-05-19T13:31:01.664Z,31.3
2023-05-19T13:32:14.454Z,31.3
2023-05-19T13:33:16.955Z,31.3
2023-05-19T13:34:29.997Z,31.3
2023-05-19T13:35:42.039Z,31.3
2023-05-19T13:36:55.029Z,31.3
2023-05-19T13:37:57.371Z,31.3
2023-05-19T13:39:10.463Z,31.2
2023-05-19T13:40:22.519Z,31.3
2023-05-19T13:41:35.448Z,31.2
2023-05-19T13:42:37.714Z,31.3
2023-05-19T13:43:50.508Z,31.3
2023-05-19T13:45:02.720Z,31.3
2023-05-19T13:46:06.058Z,31.2
2023-05-19T13:47:18.289Z,31.3
2023-05-19T13:48:40.976Z,31.2
2023-05-19T13:49:44.283Z,31.2
2023-05-19T13:50:47.468Z,31.2
2023-05-19T13:51:59.573Z,31.2
2023-05-19T13:53:12.477Z,31.2
2023-05-19T13:54:14.721Z,31.2
2023-05-19T13:55:28.504Z,31.2
2023-05-19T13:56:40.606Z,31.2
2023-05-19T13:57:53.462Z,31.2
2023-05-19T13:58:55.823Z,31.3
2023-05-19T14:00:08.479Z,31.3
2023-05-19T14:01:20.633Z,31.3
2023-05-19T14:02:23.982Z,31.2
2023-05-19T14:03:36.227Z,31.2
2023-05-19T14:04:49.449Z,31.2
2023-05-19T14:06:01.559Z,31.2
2023-05-19T14:07:04.497Z,31.2
2023-05-19T14:08:16.580Z,31.3
2023-05-19T14:09:29.935Z,31.3
2023-05-19T14:10:32.351Z,31.3
2023-05-19T14:11:45.965Z,31.2
2023-05-19T14:13:26.007Z,31.3
2023-05-19T14:14:21.526Z,31.3
2023-05-19T14:15:13.860Z,31.3
2023-05-19T14:16:46.226Z,31.3
2023-05-19T14:17:38.782Z,31.3
2023-05-19T14:18:41.111Z,31.3
2023-05-19T14:19:54.102Z,31.3
2023-05-19T14:21:06.141Z,31.3
2023-05-19T14:22:19.088Z,31.2
2023-05-19T14:23:21.323Z,31.3
2023-05-19T14:24:34.064Z,31.2
2023-05-19T14:25:46.165Z,31.2
2023-05-19T14:26:49.098Z,31.2
2023-05-19T14:28:01.107Z,31.2
2023-05-19T14:29:14.048Z,31.2
2023-05-19T14:30:26.068Z,31.3
2023-05-19T14:31:29.619Z,31.3
2023-05-19T14:32:41.707Z,31.2
2023-05-19T14:33:54.572Z,31.2
2023-05-19T14:34:56.829Z,31.3
2023-05-19T14:36:09.601Z,31.3
2023-05-19T14:37:21.766Z,31.3
2023-05-19T14:38:34.574Z,31.3
2023-05-19T14:39:36.771Z,31.3
2023-05-19T14:40:49.552Z,31.3
2023-05-19T14:42:01.580Z,31.2
2023-05-19T14:43:14.593Z,31.3
2023-05-19T14:44:16.799Z,31.3
2023-05-19T14:45:29.594Z,31.3
2023-05-19T14:46:41.741Z,31.3
2023-05-19T14:47:54.668Z,31.3
2023-05-19T14:48:57.026Z,31.3
2023-05-19T14:50:10.086Z,31.3
2023-05-19T14:51:22.128Z,31.2
2023-05-19T14:52:25.099Z,31.3
2023-05-19T14:53:37.325Z,31.3
2023-05-19T14:54:50.081Z,31.3
2023-05-19T14:56:02.181Z,31.3
2023-05-19T14:57:05.572Z,31.3
2023-05-19T14:58:28.376Z,31.3
2023-05-19T14:59:32.085Z,31.3
2023-05-19T15:00:34.509Z,31.3
2023-05-19T15:01:47.754Z,31.2
2023-05-19T15:02:59.986Z,31.2
2023-05-19T15:04:03.135Z,31.2
2023-05-19T15:05:15.365Z,31.3
2023-05-19T15:06:28.588Z,31.3
2023-05-19T15:07:30.873Z,31.1
2023-05-19T15:08:43.590Z,31.2
2023-05-19T15:09:55.701Z,31.2
2023-05-19T15:11:08.581Z,31.2
2023-05-19T15:12:10.821Z,31.3
2023-05-19T15:13:23.579Z,31.3
2023-05-19T15:14:35.673Z,31.3
2023-05-19T15:15:48.602Z,31.3
2023-05-19T15:16:50.860Z,31.3
2023-05-19T15:18:03.632Z,31.3
2023-05-19T15:19:15.843Z,31.3
2023-05-19T15:20:19.111Z,31.3
2023-05-19T15:21:31.176Z,31.3
2023-05-19T15:22:44.124Z,31.3
2023-05-19T15:23:56.140Z,31.3
2023-05-19T15:24:59.097Z,31.3
2023-05-19T15:26:11.180Z,31.3
2023-05-19T15:27:24.095Z,31.3
2023-05-19T15:28:26.231Z,31.3
2023-05-19T15:29:39.111Z,31.3
2023-05-19T15:30:51.316Z,31.3
2023-05-19T15:32:04.116Z,31.3